Latest Weather Observations for Coonamble

IDN60801

Issued at 2:05 pm EST Sunday 20 April 2014 (issued every 30 minutes, with the page automatically refreshed every 10 minutes)

About weather observations | Map of weather stations | Latest weather observations for NSW | Other Formats
Station Details ID: 051161 Name: COONAMBLE AIRPORT AWS Lat: -30.98 Lon: 148.38 Height: 181.3 m
Data from the previous 72 hours. | See also: Recent months at Coonamble
Date/Time
EST
Temp
°C
App
Temp
°C
Dew
Point
Rel
Hum
%
Delta-T
°C
Wind Press
QNH
hPa
Press
MSL
hPa
Rain
since 9 am
mm
Dir
 
Spd
km/h
Gust
km/h
Spd
kts
Gust
kts
20/02:00pm 19.6 15.4 1.6 30 8.2 WSW 13 22 7 12 1017.5 1017.0 0.0
20/01:30pm 19.5 15.3 1.5 30 8.2 SW 13 20 7 11 1017.6 - 0.0
20/01:00pm 19.1 14.8 0.7 29 8.2 W 13 22 7 12 1018.0 1017.5 0.0
20/12:30pm 19.1 14.6 2.0 32 7.9 WSW 15 20 8 11 1018.3 - 0.0
20/12:00pm 18.0 13.6 0.6 31 7.7 SW 13 20 7 11 1018.8 1018.3 0.0
20/11:30am 17.8 14.1 2.2 35 7.1 SW 11 17 6 9 1019.2 - 0.0
20/11:00am 17.4 13.6 1.8 35 7.0 SW 11 17 6 9 1019.5 1019.0 0.0
20/10:30am 17.1 13.3 3.8 41 6.3 SW 13 19 7 10 1019.7 - 0.0
20/10:00am 16.1 13.0 3.5 43 5.8 WSW 9 19 5 10 1019.8 1019.3 0.0
20/09:30am 15.0 12.7 4.7 50 4.9 W 6 9 3 5 1019.7 - 0.0
20/09:00am 12.9 10.6 4.8 58 3.8 SW 6 9 3 5 1019.6 1019.1 0.0
20/08:30am 10.9 9.2 3.9 62 3.1 WSW 2 7 1 4 1019.4 - 0.0
20/08:00am 9.2 7.8 3.4 67 2.5 CALM 0 0 0 0 1019.2 1018.7 0.0
20/07:30am 6.5 5.2 4.0 84 1.1 CALM 0 0 0 0 1018.7 - 0.0
20/07:00am 4.5 3.0 2.8 89 0.7 CALM 0 0 0 0 1018.5 1018.0 0.0
20/06:30am 3.2 1.4 0.9 85 0.9 CALM 0 0 0 0 1018.2 - 0.0
20/06:00am 5.2 2.5 2.9 85 1.0 NNE 6 7 3 4 1017.9 1017.4 0.0
20/05:30am 5.8 2.2 3.1 83 1.1 ESE 11 15 6 8 1017.4 - 0.0
20/05:00am 6.0 2.3 2.5 78 1.4 SSE 11 11 6 6 1016.9 1016.4 0.0
20/04:30am 7.0 2.7 3.1 76 1.7 SSE 15 19 8 10 1016.6 - 0.0
20/04:00am 6.5 2.1 2.8 77 1.5 SE 15 17 8 9 1016.7 1016.2 0.0
20/03:30am 6.2 2.5 2.3 76 1.6 SSE 11 13 6 7 1016.7 - 0.0
20/03:00am 7.6 4.0 2.7 71 2.1 SSE 11 13 6 7 1016.8 1016.3 0.0
20/02:30am 9.0 4.2 2.8 65 2.7 SSE 17 22 9 12 1016.7 - 0.0
20/02:00am 9.4 4.7 3.2 65 2.7 S 17 20 9 11 1017.0 1016.6 0.0
20/01:30am 9.1 4.3 2.7 64 2.7 SSE 17 20 9 11 1017.2 - 0.0
20/01:00am 10.1 5.7 2.9 61 3.1 S 15 19 8 10 1017.4 1016.9 0.0
20/12:30am 10.4 6.5 3.2 61 3.2 S 13 19 7 10 1017.5 - 0.0
20/12:00am 10.3 6.0 3.1 61 3.1 S 15 19 8 10 1017.5 1017.0 0.0
 
Date/Time
EST
Temp
°C
App
Temp
°C
Dew
Point
Rel
Hum
%
Delta-T
°C
Wind Press
QNH
hPa
Press
MSL
hPa
Rain
since 9 am
mm
Dir
 
Spd
km/h
Gust
km/h
Spd
kts
Gust
kts
19/11:30pm 10.9 6.2 3.2 59 3.4 S 17 20 9 11 1017.7 - 0.0
19/11:00pm 10.6 6.3 3.2 60 3.2 S 15 19 8 10 1017.9 1017.4 0.0
19/10:30pm 9.5 5.5 2.6 62 3.0 S 13 15 7 8 1018.2 - 0.0
19/10:00pm 10.2 6.9 2.3 58 3.4 SSW 9 11 5 6 1018.5 1018.0 0.0
19/09:30pm 10.3 6.6 2.4 58 3.4 S 11 15 6 8 1018.4 - 0.0
19/09:00pm 10.6 6.9 2.4 57 3.5 SSW 11 13 6 7 1018.3 1017.8 0.0
19/08:30pm 10.9 7.6 2.7 57 3.6 SSW 9 11 5 6 1018.3 - 0.0
19/08:00pm 12.1 8.8 2.6 52 4.2 SSW 9 11 5 6 1018.2 1017.7 0.0
19/07:30pm 12.4 8.7 2.6 51 4.3 SSW 11 13 6 7 1017.8 - 0.0
19/07:00pm 14.1 9.3 2.4 45 5.2 SSW 17 19 9 10 1017.7 1017.2 0.0
19/06:30pm 14.4 10.1 3.5 48 5.0 SW 15 17 8 9 1017.2 - 0.0
19/06:00pm 16.0 11.5 4.4 46 5.5 SW 17 20 9 11 1016.7 1016.2 0.0
19/05:30pm 18.2 13.1 4.0 39 6.8 SSW 20 28 11 15 1016.1 - 0.0
19/05:00pm 19.6 14.7 4.9 38 7.2 SSW 20 28 11 15 1015.8 1015.3 0.0
19/04:30pm 20.6 16.0 5.8 38 7.4 SSW 19 26 10 14 1015.7 - 0.0
19/04:00pm 21.0 15.4 5.4 36 7.8 SW 24 32 13 17 1015.7 1015.2 0.0
19/03:30pm 21.8 16.8 6.5 37 7.8 SSW 22 37 12 20 1015.7 - 0.0
19/03:00pm 22.2 18.8 7.6 39 7.6 WSW 15 22 8 12 1015.6 1015.1 0.0
19/02:30pm 22.1 17.2 7.1 38 7.8 SSW 22 32 12 17 1015.5 - 0.0
19/02:00pm 22.8 19.5 8.1 39 7.8 SSW 15 24 8 13 1015.7 1015.2 0.0
19/01:30pm 23.0 19.0 8.3 39 7.8 SW 19 26 10 14 1015.8 - 0.0
19/01:00pm 23.0 19.9 8.7 40 7.7 SSW 15 24 8 13 1016.2 1015.7 0.0
19/12:30pm 22.8 19.4 9.2 42 7.4 SW 17 26 9 14 1016.7 - 0.0
19/12:00pm 22.4 19.9 9.6 44 7.0 SSW 13 26 7 14 1017.2 1016.8 0.0
19/11:30am 21.7 18.7 10.5 49 6.2 S 17 24 9 13 1017.8 - 0.0
19/11:00am 21.3 18.0 10.8 51 5.8 S 19 28 10 15 1018.0 1017.5 0.0
19/10:30am 20.4 17.5 11.1 55 5.1 S 17 22 9 12 1018.3 - 0.0
19/10:00am 20.0 17.2 11.2 57 4.9 S 17 24 9 13 1018.4 1017.9 0.0
19/09:30am 19.2 16.8 12.5 65 3.8 S 17 22 9 12 1018.4 - 0.0
19/09:00am 17.5 14.5 12.0 70 3.0 S 19 24 10 13 1018.5 1018.0 0.0
19/08:30am 16.0 12.6 11.4 74 2.5 S 20 26 11 14 1018.5 - 0.0
19/08:00am 14.5 12.6 11.8 84 1.5 SSE 13 19 7 10 1018.2 1017.7 0.0
19/07:30am 12.7 10.2 11.1 90 0.8 SSE 15 19 8 10 1018.0 - 0.0
19/07:00am 10.8 8.4 10.2 96 0.3 S 13 15 7 8 1018.0 1017.5 0.0
19/06:30am 8.8 7.0 7.9 94 0.4 S 7 9 4 5 1017.7 - 0.0
19/06:00am 8.9 8.3 7.5 91 0.7 CALM 0 0 0 0 1017.5 1017.0 0.0
19/05:30am 9.2 7.5 7.6 90 0.8 S 6 7 3 4 1017.0 - 0.0
19/05:00am 9.6 7.9 8.2 91 0.7 SSE 7 9 4 5 1016.7 1016.2 0.0
19/04:30am 9.0 7.0 7.1 88 0.9 SSE 7 9 4 5 1016.7 - 0.0
19/04:00am 9.2 7.9 7.5 89 0.8 S 4 7 2 4 1016.6 1016.1 0.0
19/03:30am 9.5 7.6 7.4 87 1.0 SSE 7 9 4 5 1016.5 - 0.0
19/03:00am 10.3 9.7 7.5 83 1.4 CALM 0 0 0 0 1016.3 1015.8 0.0
19/02:30am 10.7 8.9 7.8 82 1.4 SSE 7 9 4 5 1016.6 - 0.0
19/02:00am 11.4 9.6 8.1 80 1.6 E 7 9 4 5 1016.5 1016.0 0.0
19/01:30am 10.5 7.9 7.6 82 1.4 ENE 11 11 6 6 1016.5 - 0.0
19/01:00am 10.3 7.6 7.4 82 1.4 ENE 11 13 6 7 1016.7 1016.2 0.0
19/12:30am 10.6 8.4 8.0 84 1.3 E 9 11 5 6 1016.7 - 0.0
19/12:00am 11.4 10.9 7.9 79 1.7 CALM 0 0 0 0 1016.8 1016.3 0.0
 
Date/Time
EST
Temp
°C
App
Temp
°C
Dew
Point
Rel
Hum
%
Delta-T
°C
Wind Press
QNH
hPa
Press
MSL
hPa
Rain
since 9 am
mm
Dir
 
Spd
km/h
Gust
km/h
Spd
kts
Gust
kts
18/11:30pm 11.8 11.4 8.1 78 1.8 CALM 0 0 0 0 1016.9 - 0.0
18/11:00pm 12.7 12.3 8.4 75 2.2 CALM 0 0 0 0 1017.0 1016.6 0.0
18/10:30pm 12.6 12.3 8.5 76 2.1 CALM 0 0 0 0 1017.2 - 0.0
18/10:00pm 12.6 12.2 8.1 74 2.2 CALM 0 0 0 0 1017.2 1016.8 0.0
18/09:30pm 13.2 12.8 8.3 72 2.5 CALM 0 0 0 0 1017.2 - 0.0
18/09:00pm 13.3 11.4 7.5 68 2.9 NW 7 7 4 4 1017.1 1016.7 0.0
18/08:30pm 13.7 13.2 7.9 68 2.9 CALM 0 0 0 0 1017.1 - 0.0
18/08:00pm 14.9 14.4 7.7 62 3.6 CALM 0 0 0 0 1017.0 1016.6 0.0
18/07:30pm 16.1 14.2 7.6 57 4.3 S 7 9 4 5 1016.8 - 0.0
18/07:00pm 16.0 13.6 7.0 55 4.5 S 9 9 5 5 1016.7 1016.2 0.0
18/06:30pm 17.0 14.1 6.5 50 5.2 SSW 11 13 6 7 1016.4 - 0.0
18/06:00pm 18.3 15.9 6.8 47 5.8 SSW 9 11 5 6 1016.1 1015.6 0.0
18/05:30pm 20.8 17.0 6.0 38 7.5 SSW 15 19 8 10 1016.1 - 0.0
18/05:00pm 22.1 17.6 6.3 36 8.1 SSW 19 24 10 13 1016.0 1015.5 0.0
18/04:30pm 23.1 18.6 6.0 33 8.8 SW 19 26 10 14 1015.8 - 0.0
18/04:00pm 23.8 19.2 5.7 31 9.2 SW 19 30 10 16 1015.6 1015.1 0.0
18/03:30pm 24.1 20.3 5.9 31 9.4 SW 15 20 8 11 1015.6 - 0.0
18/03:00pm 24.6 19.9 5.9 30 9.6 SSW 20 32 11 17 1015.5 1015.0 0.0
18/02:30pm 24.4 20.2 5.7 30 9.6 SSW 17 26 9 14 1015.6 - 0.0
18/02:00pm 24.2 20.3 6.9 33 9.1 SSW 17 22 9 12 1015.8 1015.3 0.0
18/01:30pm 23.7 19.8 7.3 35 8.6 SW 17 26 9 14 1016.0 - 0.0
18/01:00pm 23.9 19.7 7.5 35 8.7 SW 19 22 10 12 1016.5 1016.0 0.0
18/12:30pm 23.9 20.9 7.9 36 8.5 WSW 13 24 7 13 1017.0 - 0.0
18/12:00pm 22.8 18.8 6.6 35 8.4 SW 17 26 9 14 1017.7 1017.2 0.0
18/11:30am 22.5 18.4 6.3 35 8.3 SW 17 26 9 14 1018.2 - 0.0
18/11:00am 22.7 20.0 8.8 41 7.5 WSW 13 20 7 11 1018.5 1018.0 0.0
18/10:30am 21.5 19.1 8.7 44 6.8 WSW 11 17 6 9 1018.7 - 0.0
18/10:00am 20.7 18.3 8.7 46 6.4 SW 11 19 6 10 1019.0 1018.5 0.0
18/09:30am 19.5 17.9 8.8 50 5.6 W 7 11 4 6 1019.2 - 0.0
18/09:00am 17.6 17.0 10.5 63 3.8 SW 4 7 2 4 1019.1 1018.6 0.0
18/08:30am 15.6 15.0 11.6 77 2.2 S 6 7 3 4 1019.1 - 0.0
18/08:00am 13.2 13.6 11.3 88 1.0 CALM 0 0 0 0 1019.1 1018.6 0.0
18/07:30am 10.9 11.1 10.4 97 0.3 CALM 0 0 0 0 1019.0 - 0.0
18/07:00am 9.0 8.7 8.5 97 0.2 CALM 0 0 0 0 1019.0 1018.5 0.0
18/06:30am 7.7 7.1 7.3 97 0.2 CALM 0 0 0 0 1018.7 - 0.0
18/06:00am 8.6 8.2 8.2 97 0.2 CALM 0 0 0 0 1018.4 1017.9 0.0
18/05:30am 8.9 8.6 8.5 97 0.2 CALM 0 0 0 0 1018.3 - 0.0
18/05:00am 8.8 8.3 8.0 95 0.4 CALM 0 0 0 0 1018.3 1017.8 0.0
18/04:30am 9.0 8.6 8.1 94 0.4 CALM 0 0 0 0 1018.3 - 0.0
18/04:00am 9.3 8.8 7.9 91 0.7 CALM 0 0 0 0 1018.3 1017.8 0.0
18/03:30am 9.5 9.1 8.4 93 0.5 CALM 0 0 0 0 1018.2 - 0.0
18/03:00am 9.7 9.4 8.5 92 0.6 CALM 0 0 0 0 1018.2 1017.7 0.0
18/02:30am 9.8 9.4 8.2 90 0.8 CALM 0 0 0 0 1018.4 - 0.0
18/02:00am 10.5 10.1 8.3 86 1.1 CALM 0 4 0 2 1018.4 1017.9 0.0
18/01:30am 10.0 8.4 7.8 86 1.1 S 6 7 3 4 1018.6 - 0.0
18/01:00am 10.4 8.8 8.0 85 1.2 SSW 6 7 3 4 1018.8 1018.3 0.0
18/12:30am 10.6 10.1 7.7 82 1.4 CALM 0 0 0 0 1019.1 - 0.0
18/12:00am 11.3 10.1 8.2 81 1.5 SW 4 6 2 3 1019.3 1018.8 0.0
 
Date/Time
EST
Temp
°C
App
Temp
°C
Dew
Point
Rel
Hum
%
Delta-T
°C
Wind Press
QNH
hPa
Press
MSL
hPa
Rain
since 9 am
mm
Dir
 
Spd
km/h
Gust
km/h
Spd
kts
Gust
kts
17/11:30pm 11.5 9.9 8.0 79 1.7 SSW 6 6 3 3 1019.4 - 0.0
17/11:00pm 11.5 10.9 7.6 77 1.9 CALM 0 0 0 0 1019.5 1019.0 0.0
17/10:30pm 12.4 11.9 7.7 73 2.3 CALM 0 0 0 0 1019.7 - 0.0
17/10:00pm 13.0 11.4 7.9 71 2.5 S 6 7 3 4 1019.9 1019.4 0.0
17/09:30pm 13.5 11.7 7.9 69 2.8 SSE 7 7 4 4 1019.6 - 0.0
17/09:00pm 13.5 11.4 8.1 70 2.7 SSW 9 11 5 6 1019.6 1019.1 0.0
17/08:30pm 13.5 11.3 7.7 68 2.9 SSW 9 11 5 6 1019.5 - 0.0
17/08:00pm 14.5 12.0 8.0 65 3.3 SSW 11 13 6 7 1019.5 1019.0 0.0
17/07:30pm 14.7 12.2 8.0 64 3.4 SSW 11 13 6 7 1019.2 - 0.0
17/07:00pm 16.5 13.9 7.7 56 4.4 S 11 13 6 7 1018.9 1018.4 0.0
17/06:30pm 17.5 14.5 7.5 52 5.1 S 13 15 7 8 1018.6 - 0.0
17/06:00pm 18.1 14.9 6.9 48 5.6 S 13 15 7 8 1018.4 1017.9 0.0
17/05:30pm 20.2 16.1 6.2 40 7.1 S 17 20 9 11 1018.3 - 0.0
17/05:00pm 21.7 16.9 5.6 35 8.1 S 20 26 11 14 1018.2 1017.7 0.0
17/04:30pm 22.4 17.8 5.8 34 8.4 S 19 22 10 12 1018.0 - 0.0
17/04:00pm 22.8 17.9 5.3 32 8.8 S 20 33 11 18 1017.8 1017.3 0.0
17/03:30pm 23.5 19.4 6.3 33 8.9 S 17 24 9 13 1017.7 - 0.0
17/03:00pm 23.4 18.9 6.2 33 8.8 S 19 24 10 13 1017.6 1017.1 0.0
17/02:30pm 23.2 17.8 6.5 34 8.6 S 24 28 13 15 1017.9 - 0.0

Other Formats:

Comma delimited format used in spreadsheet applications
http://www.bom.gov.au/fwo/IDN60801/IDN60801.95718.axf

JavaScript Object Notation format (JSON) in row-major order
http://www.bom.gov.au/fwo/IDN60801/IDN60801.95718.json